createdAt,value
2023-07-10T00:01:40.470Z,18.6
2023-07-10T00:03:40.984Z,18.6
2023-07-10T00:07:41.165Z,18.8
2023-07-10T00:09:40.417Z,18.9
2023-07-10T00:11:42.153Z,18.9
2023-07-10T00:15:41.002Z,19.0
2023-07-10T00:17:40.353Z,18.7
2023-07-10T00:19:41.589Z,18.6
2023-07-10T00:21:40.786Z,18.6
2023-07-10T00:23:40.466Z,18.7
2023-07-10T00:25:41.487Z,18.8
2023-07-10T00:29:40.578Z,18.7
2023-07-10T00:31:40.708Z,18.8
2023-07-10T00:33:40.618Z,18.8
2023-07-10T00:35:41.241Z,18.8
2023-07-10T00:37:40.634Z,18.7
2023-07-10T00:39:40.806Z,18.5
2023-07-10T00:41:42.513Z,18.5
2023-07-10T00:43:44.502Z,18.5
2023-07-10T00:45:40.680Z,18.3
2023-07-10T00:47:49.719Z,18.3
2023-07-10T00:49:46.217Z,18.4
2023-07-10T00:51:47.971Z,18.3
2023-07-10T00:53:44.326Z,18.3
2023-07-10T00:55:43.745Z,18.2
2023-07-10T00:59:42.356Z,18.1
2023-07-10T01:02:02.414Z,18.0
2023-07-10T01:03:42.730Z,18.1
2023-07-10T01:05:41.049Z,18.0
2023-07-10T01:07:46.517Z,18.2
2023-07-10T01:09:42.572Z,18.0
2023-07-10T01:11:42.145Z,17.9
2023-07-10T01:13:44.212Z,17.8
2023-07-10T01:15:41.221Z,17.9
2023-07-10T01:19:43.924Z,17.7
2023-07-10T01:21:41.021Z,17.7
2023-07-10T01:23:41.098Z,17.8
2023-07-10T01:29:43.892Z,17.8
2023-07-10T01:33:44.444Z,17.7
2023-07-10T01:35:42.923Z,17.7
2023-07-10T01:37:41.219Z,17.6
2023-07-10T01:39:43.385Z,17.6
2023-07-10T01:43:41.173Z,17.7
2023-07-10T01:45:42.940Z,17.7
2023-07-10T01:47:41.638Z,17.7
2023-07-10T01:49:45.520Z,17.7
2023-07-10T01:51:41.347Z,17.7
2023-07-10T01:53:44.821Z,17.5
2023-07-10T01:55:44.112Z,17.7
2023-07-10T01:57:41.262Z,17.8
2023-07-10T02:01:42.765Z,17.6
2023-07-10T02:03:41.343Z,17.6
2023-07-10T02:05:41.368Z,17.3
2023-07-10T02:09:41.306Z,17.3
2023-07-10T02:11:41.331Z,17.3
2023-07-10T02:13:41.296Z,17.2
2023-07-10T02:15:41.356Z,17.2
2023-07-10T02:17:41.350Z,17.0
2023-07-10T02:19:41.380Z,17.0
2023-07-10T02:21:41.467Z,17.0
2023-07-10T02:23:41.360Z,16.9
2023-07-10T02:25:41.348Z,17.0
2023-07-10T02:27:41.286Z,16.9
2023-07-10T02:29:41.375Z,17.0
2023-07-10T02:31:41.435Z,17.0
2023-07-10T02:33:41.355Z,16.9
2023-07-10T02:35:41.221Z,16.9
2023-07-10T02:37:41.288Z,16.8
2023-07-10T02:41:41.440Z,16.8
2023-07-10T02:43:41.181Z,16.7
2023-07-10T02:47:41.117Z,16.9
2023-07-10T02:49:41.049Z,16.4
2023-07-10T02:51:41.051Z,16.6
2023-07-10T02:53:42.519Z,16.8
2023-07-10T02:55:41.003Z,16.7
2023-07-10T02:57:41.097Z,16.3
2023-07-10T03:01:41.025Z,16.4
2023-07-10T03:03:45.340Z,16.5
2023-07-10T03:05:40.849Z,16.3
2023-07-10T03:09:40.829Z,16.3
2023-07-10T03:11:40.835Z,16.3
2023-07-10T03:13:40.903Z,15.7
2023-07-10T03:15:40.800Z,15.8
2023-07-10T03:19:40.685Z,16.1
2023-07-10T03:21:40.593Z,16.1
2023-07-10T03:23:40.670Z,15.9
2023-07-10T03:27:40.655Z,16.1
2023-07-10T03:29:40.492Z,16.0
2023-07-10T03:31:41.175Z,15.9
2023-07-10T03:33:40.406Z,15.8
2023-07-10T03:35:40.878Z,15.7
2023-07-10T03:37:40.448Z,15.7
2023-07-10T03:39:40.495Z,15.6
2023-07-10T03:41:40.478Z,16.0
2023-07-10T03:43:40.307Z,15.9
2023-07-10T03:45:41.312Z,15.5
2023-07-10T03:47:40.302Z,15.6
2023-07-10T03:49:40.331Z,15.8
2023-07-10T03:51:40.431Z,15.9
2023-07-10T03:55:47.671Z,15.8
2023-07-10T03:57:40.141Z,15.7
2023-07-10T03:59:40.120Z,15.5
2023-07-10T04:01:40.431Z,15.7
2023-07-10T04:03:40.382Z,15.7
2023-07-10T04:13:40.526Z,15.9
2023-07-10T04:15:39.774Z,15.8
2023-07-10T04:17:39.766Z,15.8
2023-07-10T04:19:39.763Z,15.8
2023-07-10T04:21:39.735Z,15.9
2023-07-10T04:25:39.552Z,15.9
2023-07-10T04:27:39.759Z,16.1
2023-07-10T04:29:39.578Z,16.6
2023-07-10T04:31:39.406Z,18.6
2023-07-10T04:33:39.586Z,19.6
2023-07-10T04:37:39.460Z,21.6
2023-07-10T04:39:39.341Z,21.5
2023-07-10T04:41:39.681Z,21.9
2023-07-10T04:43:40.027Z,22.3
2023-07-10T04:45:39.711Z,22.8
2023-07-10T04:47:39.735Z,22.8
2023-07-10T04:49:39.467Z,23.1
2023-07-10T04:53:39.654Z,23.8
2023-07-10T04:55:39.571Z,24.1
2023-07-10T04:57:39.519Z,23.6
2023-07-10T04:59:39.387Z,21.4
2023-07-10T05:01:39.592Z,20.6
2023-07-10T05:03:39.562Z,20.3
2023-07-10T05:07:39.588Z,20.0
2023-07-10T05:09:39.515Z,19.8
2023-07-10T05:11:39.680Z,19.5
2023-07-10T05:13:39.726Z,19.5
2023-07-10T05:15:39.654Z,19.1
2023-07-10T05:17:40.469Z,19.2
2023-07-10T05:19:39.987Z,19.2
2023-07-10T05:21:39.863Z,19.0
2023-07-10T05:23:40.040Z,19.2
2023-07-10T05:25:40.318Z,19.1
2023-07-10T05:27:39.969Z,19.2
2023-07-10T05:29:40.050Z,19.0
2023-07-10T05:33:40.991Z,19.2
2023-07-10T05:35:48.353Z,19.1
2023-07-10T05:37:40.164Z,19.1
2023-07-10T05:39:41.382Z,18.9
2023-07-10T05:41:40.385Z,19.2
2023-07-10T05:45:40.480Z,19.3
2023-07-10T05:47:40.311Z,19.3
2023-07-10T05:49:40.888Z,19.4
2023-07-10T05:51:40.306Z,19.4
2023-07-10T05:55:43.580Z,19.5
2023-07-10T05:57:40.486Z,19.6
2023-07-10T06:01:40.587Z,19.7
2023-07-10T06:03:40.751Z,19.6
2023-07-10T06:07:40.548Z,19.9
2023-07-10T06:09:40.506Z,19.9
2023-07-10T06:11:40.646Z,20.0
2023-07-10T06:13:40.669Z,19.8
2023-07-10T06:15:41.650Z,20.1
2023-07-10T06:17:40.868Z,20.2
2023-07-10T06:19:41.979Z,20.2
2023-07-10T06:21:40.737Z,20.3
2023-07-10T06:23:40.895Z,20.3
2023-07-10T06:25:41.646Z,20.5
2023-07-10T06:27:40.925Z,20.6
2023-07-10T06:29:41.177Z,20.7
2023-07-10T06:31:41.106Z,20.5
2023-07-10T06:33:41.107Z,20.7
2023-07-10T06:35:42.354Z,20.9
2023-07-10T06:37:41.567Z,20.9
2023-07-10T06:39:41.300Z,20.6
2023-07-10T06:41:41.376Z,20.9
2023-07-10T06:43:41.435Z,21.0
2023-07-10T06:51:41.635Z,21.6
2023-07-10T06:53:41.683Z,21.5
2023-07-10T06:55:44.731Z,21.4
2023-07-10T06:57:42.639Z,21.1
2023-07-10T06:59:41.730Z,20.7
2023-07-10T07:01:41.921Z,21.2
2023-07-10T07:03:42.055Z,20.9
2023-07-10T07:05:42.381Z,20.9
2023-07-10T07:07:42.199Z,20.9
2023-07-10T07:09:43.361Z,21.0
2023-07-10T07:11:42.333Z,21.6
2023-07-10T07:13:42.229Z,22.0
2023-07-10T07:15:42.383Z,21.7
2023-07-10T07:19:42.533Z,22.0
2023-07-10T07:21:42.717Z,22.2
2023-07-10T07:23:42.551Z,22.2
2023-07-10T07:25:42.961Z,22.3
2023-07-10T07:27:42.631Z,22.6
2023-07-10T07:29:42.936Z,22.6
2023-07-10T07:31:42.975Z,22.7
2023-07-10T07:33:42.897Z,22.8
2023-07-10T07:35:43.364Z,22.7
2023-07-10T07:37:43.086Z,22.9
2023-07-10T07:39:43.285Z,22.8
2023-07-10T07:43:43.388Z,22.7
2023-07-10T07:45:50.131Z,22.5
2023-07-10T07:47:44.541Z,22.5
2023-07-10T07:53:43.948Z,22.4
2023-07-10T07:57:44.595Z,22.2
2023-07-10T08:01:44.471Z,22.2
2023-07-10T08:03:44.345Z,22.3
2023-07-10T08:05:44.454Z,21.9
2023-07-10T08:07:44.424Z,22.3
2023-07-10T08:09:44.456Z,22.2
2023-07-10T08:11:44.566Z,22.2
2023-07-10T08:13:44.835Z,22.0
2023-07-10T08:15:45.227Z,22.8
2023-07-10T08:17:44.823Z,23.5
2023-07-10T08:19:44.918Z,22.6
2023-07-10T08:21:46.869Z,22.7
2023-07-10T08:23:45.501Z,23.0
2023-07-10T08:25:45.445Z,23.2
2023-07-10T08:27:45.977Z,23.5
2023-07-10T08:29:45.664Z,23.7
2023-07-10T08:31:45.468Z,23.5
2023-07-10T08:33:45.770Z,23.4
2023-07-10T08:35:52.739Z,23.6
2023-07-10T08:37:45.782Z,22.9
2023-07-10T08:39:45.990Z,23.7
2023-07-10T08:41:50.352Z,23.9
2023-07-10T08:43:48.144Z,24.1
2023-07-10T08:45:48.034Z,24.0
2023-07-10T08:49:54.784Z,24.0
2023-07-10T08:51:52.740Z,23.7
2023-07-10T08:53:52.722Z,23.9
2023-07-10T08:55:57.402Z,23.6
2023-07-10T08:57:54.128Z,24.0
2023-07-10T09:01:48.341Z,24.2
2023-07-10T09:03:51.244Z,24.1
2023-07-10T09:05:50.827Z,24.5
2023-07-10T09:07:49.542Z,24.7
2023-07-10T09:09:51.482Z,24.6
2023-07-10T09:13:54.145Z,24.8
2023-07-10T09:15:55.023Z,24.9
2023-07-10T09:17:57.303Z,24.5
2023-07-10T09:19:53.619Z,24.8
2023-07-10T09:21:48.805Z,24.9
2023-07-10T09:23:49.336Z,24.9
2023-07-10T09:27:49.294Z,25.3
2023-07-10T09:29:52.356Z,25.3
2023-07-10T09:33:52.410Z,25.4
2023-07-10T09:35:49.789Z,25.0
2023-07-10T09:37:50.332Z,24.9
2023-07-10T09:39:50.068Z,24.7
2023-07-10T09:41:50.069Z,25.8
2023-07-10T09:43:54.212Z,25.3
2023-07-10T09:45:56.683Z,25.4
2023-07-10T09:47:50.761Z,25.0
2023-07-10T09:49:54.538Z,24.3
2023-07-10T09:52:02.897Z,24.4
2023-07-10T09:53:53.117Z,25.1
2023-07-10T09:55:51.378Z,25.4
2023-07-10T09:57:56.849Z,25.6
2023-07-10T10:01:53.783Z,25.5
2023-07-10T10:03:53.760Z,25.4
2023-07-10T10:08:00.789Z,26.1
2023-07-10T10:10:13.464Z,26.3
2023-07-10T10:11:57.526Z,26.5
2023-07-10T10:13:56.587Z,25.8
2023-07-10T10:16:03.515Z,25.9
2023-07-10T10:17:57.753Z,25.7
2023-07-10T10:19:56.934Z,26.2
2023-07-10T10:21:53.558Z,25.6
2023-07-10T10:23:58.678Z,26.1
2023-07-10T10:26:07.122Z,26.5
2023-07-10T10:28:02.315Z,26.9
2023-07-10T10:30:21.106Z,26.4
2023-07-10T10:32:00.564Z,25.8
2023-07-10T10:34:00.691Z,25.2
2023-07-10T10:35:56.803Z,25.5
2023-07-10T10:38:12.184Z,25.9
2023-07-10T10:39:59.674Z,26.5
2023-07-10T10:41:58.610Z,26.8
2023-07-10T10:44:03.920Z,26.1
2023-07-10T10:46:07.571Z,25.9
2023-07-10T10:50:14.356Z,26.7
2023-07-10T10:52:04.979Z,26.2
2023-07-10T10:54:19.733Z,26.3
2023-07-10T10:56:11.496Z,27.0
2023-07-10T10:58:11.487Z,26.3
2023-07-10T11:00:10.542Z,26.4
2023-07-10T11:06:11.438Z,27.4
2023-07-10T11:12:00.646Z,26.7
2023-07-10T11:14:02.742Z,26.6
2023-07-10T11:16:00.935Z,26.4
2023-07-10T11:18:00.536Z,27.0
2023-07-10T11:19:59.722Z,26.2
2023-07-10T11:22:09.969Z,26.5
2023-07-10T11:24:13.997Z,25.8
2023-07-10T11:26:02.097Z,25.7
2023-07-10T11:28:03.874Z,25.7
2023-07-10T11:30:08.670Z,27.1
2023-07-10T11:32:09.407Z,26.9
2023-07-10T11:34:22.368Z,26.5
2023-07-10T11:36:14.044Z,26.9
2023-07-10T11:38:14.708Z,27.2
2023-07-10T11:46:05.677Z,27.9
2023-07-10T11:48:02.514Z,27.8
2023-07-10T11:50:14.687Z,28.2
2023-07-10T11:52:25.122Z,28.7
2023-07-10T11:54:24.417Z,29.6
2023-07-10T11:56:07.035Z,28.5
2023-07-10T11:58:24.420Z,28.7
2023-07-10T12:00:16.415Z,28.9
2023-07-10T12:02:25.455Z,28.9
2023-07-10T12:04:14.010Z,28.8
2023-07-10T12:08:11.249Z,28.9
2023-07-10T12:10:10.928Z,27.1
2023-07-10T12:12:10.375Z,26.9
2023-07-10T12:14:09.124Z,26.0
2023-07-10T12:16:11.525Z,26.8
2023-07-10T12:18:07.883Z,27.0
2023-07-10T12:20:20.322Z,27.4
2023-07-10T12:22:18.762Z,27.5
2023-07-10T12:24:13.126Z,27.3
2023-07-10T12:26:25.234Z,27.5
2023-07-10T12:28:26.038Z,27.2
2023-07-10T12:30:20.826Z,28.0
2023-07-10T12:32:14.342Z,27.1
2023-07-10T12:34:18.718Z,27.9
2023-07-10T12:38:11.440Z,28.8
2023-07-10T12:42:23.623Z,28.0
2023-07-10T12:44:17.766Z,28.7
2023-07-10T12:46:14.914Z,28.2
2023-07-10T12:48:13.152Z,28.2
2023-07-10T12:50:09.682Z,28.6
2023-07-10T13:00:11.814Z,29.1
2023-07-10T13:02:15.421Z,29.2
2023-07-10T13:04:20.202Z,28.7
2023-07-10T13:06:16.645Z,29.1
2023-07-10T13:08:12.772Z,28.8
2023-07-10T13:10:23.000Z,29.4
2023-07-10T13:12:20.883Z,29.5
2023-07-10T13:14:24.447Z,28.8
2023-07-10T13:16:17.718Z,28.7
2023-07-10T13:18:22.771Z,28.2
2023-07-10T13:20:19.904Z,28.8
2023-07-10T13:24:14.482Z,27.9
2023-07-10T13:28:19.275Z,27.3
2023-07-10T13:30:17.093Z,27.3
2023-07-10T13:32:15.987Z,27.3
2023-07-10T13:34:15.572Z,27.6
2023-07-10T13:36:18.393Z,29.2
2023-07-10T13:38:16.634Z,27.9
2023-07-10T13:40:21.269Z,27.9
2023-07-10T13:42:18.751Z,27.9
2023-07-10T13:44:16.855Z,28.8
2023-07-10T13:48:17.384Z,29.6
2023-07-10T13:50:17.995Z,29.2
2023-07-10T13:54:18.268Z,29.2
2023-07-10T13:58:20.958Z,29.2
2023-07-10T14:00:19.154Z,29.7
2023-07-10T14:02:24.692Z,29.4
2023-07-10T14:04:20.288Z,29.2
2023-07-10T14:06:29.838Z,29.7
2023-07-10T14:08:24.523Z,29.8
2023-07-10T14:10:21.839Z,29.3
2023-07-10T14:12:21.645Z,29.2
2023-07-10T14:14:21.068Z,29.5
2023-07-10T14:22:23.305Z,28.9
2023-07-10T14:24:22.524Z,30.1
2023-07-10T14:26:25.918Z,30.4
2023-07-10T14:28:25.928Z,29.9
2023-07-10T14:30:23.290Z,29.9
2023-07-10T17:44:53.579Z,27.7
2023-07-10T17:48:54.138Z,27.2
2023-07-10T17:50:56.979Z,27.3
2023-07-10T17:52:54.624Z,27.1
2023-07-10T17:54:55.088Z,27.4
2023-07-10T17:56:56.442Z,26.9
2023-07-10T17:58:55.525Z,27.3
2023-07-10T18:00:56.349Z,27.3
2023-07-10T18:05:13.837Z,27.4
2023-07-10T18:06:56.464Z,27.5
2023-07-10T18:11:01.279Z,27.6
2023-07-10T18:12:57.265Z,27.1
2023-07-10T18:16:57.926Z,26.7
2023-07-10T18:18:58.145Z,26.7
2023-07-10T18:20:59.461Z,26.8
2023-07-10T18:24:58.969Z,26.8
2023-07-10T18:26:59.355Z,26.5
2023-07-10T18:28:59.624Z,26.8
2023-07-10T18:31:00.267Z,26.7
2023-07-10T18:33:00.187Z,26.5
2023-07-10T18:35:00.330Z,26.6
2023-07-10T18:39:00.910Z,26.3
2023-07-10T18:41:01.179Z,26.2
2023-07-10T18:43:01.642Z,26.5
2023-07-10T18:45:03.191Z,26.4
2023-07-10T18:47:02.100Z,26.4
2023-07-10T18:51:06.183Z,26.2
2023-07-10T18:53:03.628Z,26.0
2023-07-10T18:55:12.926Z,25.8
2023-07-10T18:57:03.526Z,26.0
2023-07-10T18:59:05.007Z,25.8
2023-07-10T19:01:04.552Z,25.7
2023-07-10T19:05:05.411Z,25.4
2023-07-10T19:07:10.682Z,25.3
2023-07-10T19:09:15.208Z,25.3
2023-07-10T19:11:05.283Z,25.2
2023-07-10T19:13:13.363Z,25.0
2023-07-10T19:15:06.199Z,24.8
2023-07-10T19:17:13.142Z,24.5
2023-07-10T19:21:09.850Z,24.4
2023-07-10T19:23:17.673Z,24.2
2023-07-10T19:27:07.370Z,24.1
2023-07-10T19:29:07.288Z,24.0
2023-07-10T19:31:07.756Z,23.8
2023-07-10T19:33:16.756Z,23.8
2023-07-10T19:37:09.446Z,23.6
2023-07-10T19:39:15.728Z,23.5
2023-07-10T19:45:09.305Z,23.4
2023-07-10T19:47:10.963Z,23.1
2023-07-10T19:49:11.864Z,23.0
2023-07-10T19:53:16.034Z,22.9
2023-07-10T19:55:12.558Z,22.8
2023-07-10T19:57:16.238Z,22.7
2023-07-10T19:59:13.260Z,22.8
2023-07-10T20:03:13.886Z,22.4
2023-07-10T20:05:12.189Z,22.5
2023-07-10T20:07:12.225Z,22.4
2023-07-10T20:09:14.473Z,22.3
2023-07-10T20:11:11.766Z,22.1
2023-07-10T20:13:12.464Z,22.0
2023-07-10T20:15:13.860Z,22.1
2023-07-10T20:17:31.737Z,22.1
2023-07-10T20:19:15.067Z,22.0
2023-07-10T20:21:12.482Z,21.8
2023-07-10T20:23:14.455Z,21.6
2023-07-10T20:25:13.421Z,21.8
2023-07-10T20:29:16.436Z,21.5
2023-07-10T20:31:16.219Z,21.6
2023-07-10T20:33:15.222Z,21.3
2023-07-10T20:37:15.005Z,21.4
2023-07-10T20:39:14.989Z,21.4
2023-07-10T20:43:15.448Z,21.1
2023-07-10T20:45:14.805Z,21.0
2023-07-10T20:47:15.350Z,21.0
2023-07-10T20:51:17.282Z,21.0
2023-07-10T20:55:14.341Z,20.8
2023-07-10T20:57:14.983Z,20.8
2023-07-10T20:59:18.470Z,20.8
2023-07-10T21:01:17.578Z,20.9
2023-07-10T21:03:17.448Z,20.8
2023-07-10T21:05:15.211Z,20.7
2023-07-10T21:09:21.246Z,20.7
2023-07-10T21:11:17.534Z,20.7
2023-07-10T21:13:17.624Z,20.7
2023-07-10T21:17:19.739Z,20.7
2023-07-10T21:19:19.383Z,20.6
2023-07-10T21:21:17.074Z,20.6
2023-07-10T21:23:24.769Z,20.4
2023-07-10T21:25:15.713Z,20.4
2023-07-10T21:27:22.587Z,20.5
2023-07-10T21:29:16.567Z,20.5
2023-07-10T21:31:18.101Z,20.4
2023-07-10T21:33:18.010Z,20.4
2023-07-10T21:35:25.122Z,20.6
2023-07-10T21:37:16.535Z,20.5
2023-07-10T21:39:16.359Z,20.6
2023-07-10T21:41:18.582Z,20.6
2023-07-10T21:43:20.295Z,20.7
2023-07-10T21:45:16.833Z,20.7
2023-07-10T21:47:16.726Z,20.8
2023-07-10T21:49:17.546Z,20.6
2023-07-10T21:51:17.260Z,20.9
2023-07-10T21:53:19.903Z,21.2
2023-07-10T21:55:22.223Z,21.1
2023-07-10T21:57:20.061Z,20.7
2023-07-10T21:59:20.343Z,20.6
2023-07-10T22:01:21.820Z,20.4
2023-07-10T22:05:17.816Z,20.5
2023-07-10T22:07:17.585Z,20.4
2023-07-10T22:09:17.738Z,21.1
2023-07-10T22:11:21.374Z,20.5
2023-07-10T22:13:20.788Z,20.5
2023-07-10T22:15:19.894Z,20.6
2023-07-10T22:17:21.208Z,20.2
2023-07-10T22:19:18.146Z,20.4
2023-07-10T22:21:19.423Z,20.4
2023-07-10T22:23:19.662Z,20.1
2023-07-10T22:27:18.626Z,20.1
2023-07-10T22:29:18.431Z,20.0
2023-07-10T22:31:21.493Z,20.0
2023-07-10T22:33:21.005Z,19.5
2023-07-10T22:35:18.525Z,19.6
2023-07-10T22:37:18.958Z,19.7
2023-07-10T22:39:18.840Z,19.8
2023-07-10T22:41:24.866Z,19.9
2023-07-10T22:43:23.955Z,19.8
2023-07-10T22:45:18.832Z,19.7
2023-07-10T22:49:18.949Z,19.3
2023-07-10T22:51:23.978Z,19.5
2023-07-10T22:53:21.009Z,19.5
2023-07-10T22:55:19.008Z,19.4
2023-07-10T22:57:19.017Z,19.4
2023-07-10T22:59:19.610Z,19.3
2023-07-10T23:01:20.916Z,19.3
2023-07-10T23:03:19.254Z,18.9
2023-07-10T23:05:23.656Z,19.1
2023-07-10T23:07:19.172Z,19.1
2023-07-10T23:09:19.268Z,19.1
2023-07-10T23:11:19.444Z,19.1
2023-07-10T23:13:19.360Z,18.9
2023-07-10T23:15:19.561Z,18.9
2023-07-10T23:17:19.920Z,18.7
2023-07-10T23:19:19.513Z,18.7
2023-07-10T23:21:20.549Z,18.4
2023-07-10T23:23:19.927Z,18.6
2023-07-10T23:25:20.672Z,18.7
2023-07-10T23:27:19.724Z,18.4
2023-07-10T23:29:19.625Z,18.4
2023-07-10T23:31:23.354Z,18.3
2023-07-10T23:33:19.753Z,18.2
2023-07-10T23:35:20.059Z,18.2
2023-07-10T23:39:19.883Z,18.2
2023-07-10T23:43:20.034Z,17.7
2023-07-10T23:45:21.247Z,17.7
2023-07-10T23:47:20.197Z,17.9
2023-07-10T23:49:20.093Z,17.8
2023-07-10T23:51:20.144Z,17.8
2023-07-10T23:53:20.394Z,17.7
2023-07-10T23:55:20.474Z,17.7
2023-07-10T23:59:20.268Z,17.5
